sensor_id;sensor_type;location;lat;lon;timestamp;P1;durP1;ratioP1;P2;durP2;ratioP2
34204;SDS011;20471;49.680;20.074;2022-09-01T00:01:37;6.62;;;4.53;;
34204;SDS011;20471;49.680;20.074;2022-09-01T00:04:09;8.08;;;4.33;;
34204;SDS011;20471;49.680;20.074;2022-09-01T00:06:38;7.12;;;4.30;;
34204;SDS011;20471;49.680;20.074;2022-09-01T00:09:06;5.85;;;4.28;;
34204;SDS011;20471;49.680;20.074;2022-09-01T00:11:39;5.85;;;3.87;;
34204;SDS011;20471;49.680;20.074;2022-09-01T00:14:08;6.62;;;4.53;;
34204;SDS011;20471;49.680;20.074;2022-09-01T00:16:36;6.58;;;4.20;;
34204;SDS011;20471;49.680;20.074;2022-09-01T00:19:02;6.60;;;4.05;;
34204;SDS011;20471;49.680;20.074;2022-09-01T00:21:32;8.40;;;3.77;;
34204;SDS011;20471;49.680;20.074;2022-09-01T00:24:02;9.18;;;4.22;;
34204;SDS011;20471;49.680;20.074;2022-09-01T00:26:30;8.00;;;4.40;;
34204;SDS011;20471;49.680;20.074;2022-09-01T00:28:56;9.58;;;4.25;;
34204;SDS011;20471;49.680;20.074;2022-09-01T00:31:23;7.87;;;4.30;;
34204;SDS011;20471;49.680;20.074;2022-09-01T00:33:50;7.80;;;4.40;;
34204;SDS011;20471;49.680;20.074;2022-09-01T00:36:17;7.78;;;4.80;;
34204;SDS011;20471;49.680;20.074;2022-09-01T00:38:44;6.60;;;4.50;;
34204;SDS011;20471;49.680;20.074;2022-09-01T00:41:12;6.42;;;4.03;;
34204;SDS011;20471;49.680;20.074;2022-09-01T00:43:44;6.87;;;4.05;;
34204;SDS011;20471;49.680;20.074;2022-09-01T00:46:16;8.65;;;5.15;;
34204;SDS011;20471;49.680;20.074;2022-09-01T00:51:20;7.72;;;4.50;;
34204;SDS011;20471;49.680;20.074;2022-09-01T00:53:47;7.90;;;4.67;;
34204;SDS011;20471;49.680;20.074;2022-09-01T00:56:14;9.20;;;5.15;;
34204;SDS011;20471;49.680;20.074;2022-09-01T00:58:42;7.95;;;4.65;;
34204;SDS011;20471;49.680;20.074;2022-09-01T01:01:09;4.90;;;3.62;;
34204;SDS011;20471;49.680;20.074;2022-09-01T01:03:37;6.25;;;4.00;;
34204;SDS011;20471;49.680;20.074;2022-09-01T01:06:06;6.10;;;4.15;;
34204;SDS011;20471;49.680;20.074;2022-09-01T01:08:35;7.22;;;4.00;;
34204;SDS011;20471;49.680;20.074;2022-09-01T01:11:06;6.58;;;3.90;;
34204;SDS011;20471;49.680;20.074;2022-09-01T01:16:42;5.80;;;4.10;;
34204;SDS011;20471;49.680;20.074;2022-09-01T01:30:45;8.63;;;4.75;;
34204;SDS011;20471;49.680;20.074;2022-09-01T01:35:52;10.35;;;4.40;;
34204;SDS011;20471;49.680;20.074;2022-09-01T01:38:21;6.72;;;4.55;;
34204;SDS011;20471;49.680;20.074;2022-09-01T01:40:49;5.80;;;3.87;;
34204;SDS011;20471;49.680;20.074;2022-09-01T01:43:18;6.15;;;4.05;;
34204;SDS011;20471;49.680;20.074;2022-09-01T01:45:46;9.78;;;4.40;;
34204;SDS011;20471;49.680;20.074;2022-09-01T01:48:20;6.15;;;3.72;;
34204;SDS011;20471;49.680;20.074;2022-09-01T01:50:49;7.20;;;4.15;;
34204;SDS011;20471;49.680;20.074;2022-09-01T01:53:17;6.20;;;3.52;;
34204;SDS011;20471;49.680;20.074;2022-09-01T01:55:45;6.90;;;4.20;;
34204;SDS011;20471;49.680;20.074;2022-09-01T01:58:15;6.20;;;4.58;;
34204;SDS011;20471;49.680;20.074;2022-09-01T02:00:46;8.85;;;3.98;;
34204;SDS011;20471;49.680;20.074;2022-09-01T02:03:15;5.78;;;3.83;;
34204;SDS011;20471;49.680;20.074;2022-09-01T02:05:47;7.83;;;4.10;;
34204;SDS011;20471;49.680;20.074;2022-09-01T02:08:17;6.83;;;4.15;;
34204;SDS011;20471;49.680;20.074;2022-09-01T02:10:50;6.60;;;4.22;;
34204;SDS011;20471;49.680;20.074;2022-09-01T02:13:19;5.53;;;4.25;;
34204;SDS011;20471;49.680;20.074;2022-09-01T02:15:50;7.37;;;4.28;;
34204;SDS011;20471;49.680;20.074;2022-09-01T02:18:24;6.28;;;4.10;;
34204;SDS011;20471;49.680;20.074;2022-09-01T02:20:58;7.08;;;4.28;;
34204;SDS011;20471;49.680;20.074;2022-09-01T02:23:32;7.22;;;4.03;;
34204;SDS011;20471;49.680;20.074;2022-09-01T02:26:08;8.18;;;4.08;;
34204;SDS011;20471;49.680;20.074;2022-09-01T02:28:41;6.65;;;4.37;;
34204;SDS011;20471;49.680;20.074;2022-09-01T02:31:15;6.00;;;4.08;;
34204;SDS011;20471;49.680;20.074;2022-09-01T02:33:44;8.38;;;4.05;;
34204;SDS011;20471;49.680;20.074;2022-09-01T02:36:14;7.53;;;4.03;;
34204;SDS011;20471;49.680;20.074;2022-09-01T02:38:46;8.80;;;4.17;;
34204;SDS011;20471;49.680;20.074;2022-09-01T02:41:14;7.35;;;4.45;;
34204;SDS011;20471;49.680;20.074;2022-09-01T02:43:44;7.47;;;4.17;;
34204;SDS011;20471;49.680;20.074;2022-09-01T02:46:14;7.22;;;4.60;;
34204;SDS011;20471;49.680;20.074;2022-09-01T02:48:43;6.03;;;3.77;;
34204;SDS011;20471;49.680;20.074;2022-09-01T02:51:18;6.78;;;4.20;;
34204;SDS011;20471;49.680;20.074;2022-09-01T02:53:49;5.25;;;3.75;;
34204;SDS011;20471;49.680;20.074;2022-09-01T02:56:25;6.92;;;3.95;;
34204;SDS011;20471;49.680;20.074;2022-09-01T02:59:00;7.47;;;3.87;;
34204;SDS011;20471;49.680;20.074;2022-09-01T03:01:31;6.60;;;4.20;;
34204;SDS011;20471;49.680;20.074;2022-09-01T03:03:59;7.55;;;4.58;;
34204;SDS011;20471;49.680;20.074;2022-09-01T03:06:33;7.67;;;4.37;;
34204;SDS011;20471;49.680;20.074;2022-09-01T03:09:06;6.83;;;3.83;;
34204;SDS011;20471;49.680;20.074;2022-09-01T03:11:40;5.45;;;3.80;;
34204;SDS011;20471;49.680;20.074;2022-09-01T03:14:10;5.87;;;3.90;;
34204;SDS011;20471;49.680;20.074;2022-09-01T03:16:39;9.58;;;3.95;;
34204;SDS011;20471;49.680;20.074;2022-09-01T03:19:09;7.08;;;4.20;;
34204;SDS011;20471;49.680;20.074;2022-09-01T03:21:40;7.10;;;3.87;;
34204;SDS011;20471;49.680;20.074;2022-09-01T03:24:09;7.05;;;3.90;;
34204;SDS011;20471;49.680;20.074;2022-09-01T03:26:47;8.60;;;4.20;;
34204;SDS011;20471;49.680;20.074;2022-09-01T03:29:20;7.72;;;4.53;;
34204;SDS011;20471;49.680;20.074;2022-09-01T03:31:47;6.17;;;3.92;;
34204;SDS011;20471;49.680;20.074;2022-09-01T03:34:17;12.30;;;4.30;;
34204;SDS011;20471;49.680;20.074;2022-09-01T03:36:49;7.65;;;4.15;;
34204;SDS011;20471;49.680;20.074;2022-09-01T03:39:24;7.30;;;4.08;;
34204;SDS011;20471;49.680;20.074;2022-09-01T03:41:50;8.08;;;4.83;;
34204;SDS011;20471;49.680;20.074;2022-09-01T03:44:26;5.72;;;4.30;;
34204;SDS011;20471;49.680;20.074;2022-09-01T03:46:57;6.22;;;3.92;;
34204;SDS011;20471;49.680;20.074;2022-09-01T03:49:29;10.88;;;4.20;;
34204;SDS011;20471;49.680;20.074;2022-09-01T03:52:02;7.33;;;4.45;;
34204;SDS011;20471;49.680;20.074;2022-09-01T03:54:28;5.97;;;3.90;;
34204;SDS011;20471;49.680;20.074;2022-09-01T03:56:57;7.97;;;4.20;;
34204;SDS011;20471;49.680;20.074;2022-09-01T03:59:27;6.67;;;4.20;;
34204;SDS011;20471;49.680;20.074;2022-09-01T04:01:55;7.95;;;4.60;;
34204;SDS011;20471;49.680;20.074;2022-09-01T04:04:24;7.87;;;4.42;;
34204;SDS011;20471;49.680;20.074;2022-09-01T04:06:51;6.97;;;4.53;;
34204;SDS011;20471;49.680;20.074;2022-09-01T04:09:17;6.28;;;4.37;;
34204;SDS011;20471;49.680;20.074;2022-09-01T04:11:45;9.08;;;3.95;;
34204;SDS011;20471;49.680;20.074;2022-09-01T04:14:13;7.95;;;4.15;;
34204;SDS011;20471;49.680;20.074;2022-09-01T04:16:40;7.25;;;4.12;;
34204;SDS011;20471;49.680;20.074;2022-09-01T04:19:27;6.62;;;3.70;;
34204;SDS011;20471;49.680;20.074;2022-09-01T04:21:55;7.80;;;3.37;;
34204;SDS011;20471;49.680;20.074;2022-09-01T04:24:25;5.87;;;4.20;;
34204;SDS011;20471;49.680;20.074;2022-09-01T04:26:55;9.63;;;3.75;;
34204;SDS011;20471;49.680;20.074;2022-09-01T04:29:25;6.50;;;3.87;;
34204;SDS011;20471;49.680;20.074;2022-09-01T04:31:56;5.53;;;3.67;;
34204;SDS011;20471;49.680;20.074;2022-09-01T04:34:25;7.28;;;4.05;;
34204;SDS011;20471;49.680;20.074;2022-09-01T04:36:52;9.23;;;4.12;;
34204;SDS011;20471;49.680;20.074;2022-09-01T04:39:20;8.93;;;3.90;;
34204;SDS011;20471;49.680;20.074;2022-09-01T04:41:47;6.50;;;4.10;;
34204;SDS011;20471;49.680;20.074;2022-09-01T04:44:15;7.70;;;4.58;;
34204;SDS011;20471;49.680;20.074;2022-09-01T04:46:43;11.65;;;4.37;;
34204;SDS011;20471;49.680;20.074;2022-09-01T04:49:13;6.33;;;4.33;;
34204;SDS011;20471;49.680;20.074;2022-09-01T04:51:43;7.20;;;4.37;;
34204;SDS011;20471;49.680;20.074;2022-09-01T04:54:13;7.42;;;4.42;;
34204;SDS011;20471;49.680;20.074;2022-09-01T04:56:41;7.35;;;4.35;;
34204;SDS011;20471;49.680;20.074;2022-09-01T04:59:11;9.65;;;5.00;;
34204;SDS011;20471;49.680;20.074;2022-09-01T05:01:39;11.33;;;4.70;;
34204;SDS011;20471;49.680;20.074;2022-09-01T05:04:10;7.83;;;4.60;;
34204;SDS011;20471;49.680;20.074;2022-09-01T05:06:44;7.47;;;4.72;;
34204;SDS011;20471;49.680;20.074;2022-09-01T05:09:15;7.28;;;4.78;;
34204;SDS011;20471;49.680;20.074;2022-09-01T05:11:44;9.05;;;5.42;;
34204;SDS011;20471;49.680;20.074;2022-09-01T05:14:11;5.85;;;4.55;;
34204;SDS011;20471;49.680;20.074;2022-09-01T05:16:38;8.05;;;5.17;;
34204;SDS011;20471;49.680;20.074;2022-09-01T05:19:09;15.18;;;6.00;;
34204;SDS011;20471;49.680;20.074;2022-09-01T05:21:39;18.95;;;7.33;;
34204;SDS011;20471;49.680;20.074;2022-09-01T05:24:09;17.87;;;8.38;;
34204;SDS011;20471;49.680;20.074;2022-09-01T05:26:43;17.70;;;8.55;;
34204;SDS011;20471;49.680;20.074;2022-09-01T05:29:12;21.57;;;9.48;;
34204;SDS011;20471;49.680;20.074;2022-09-01T05:31:43;16.17;;;7.87;;
34204;SDS011;20471;49.680;20.074;2022-09-01T05:34:12;21.07;;;8.98;;
34204;SDS011;20471;49.680;20.074;2022-09-01T05:36:43;18.87;;;8.15;;
34204;SDS011;20471;49.680;20.074;2022-09-01T05:39:11;17.62;;;8.05;;
34204;SDS011;20471;49.680;20.074;2022-09-01T05:41:38;16.00;;;8.20;;
34204;SDS011;20471;49.680;20.074;2022-09-01T05:44:05;14.85;;;7.15;;
34204;SDS011;20471;49.680;20.074;2022-09-01T05:46:34;12.43;;;6.28;;
34204;SDS011;20471;49.680;20.074;2022-09-01T05:49:04;13.50;;;6.25;;
34204;SDS011;20471;49.680;20.074;2022-09-01T05:51:33;13.65;;;6.12;;
34204;SDS011;20471;49.680;20.074;2022-09-01T05:54:01;11.20;;;5.53;;
34204;SDS011;20471;49.680;20.074;2022-09-01T05:56:29;12.45;;;6.10;;
34204;SDS011;20471;49.680;20.074;2022-09-01T05:58:59;9.70;;;5.97;;
34204;SDS011;20471;49.680;20.074;2022-09-01T06:01:27;9.45;;;5.45;;
34204;SDS011;20471;49.680;20.074;2022-09-01T06:03:56;10.10;;;5.78;;
34204;SDS011;20471;49.680;20.074;2022-09-01T06:06:24;11.53;;;5.85;;
34204;SDS011;20471;49.680;20.074;2022-09-01T06:08:55;9.65;;;5.30;;
34204;SDS011;20471;49.680;20.074;2022-09-01T06:11:24;9.00;;;6.03;;
34204;SDS011;20471;49.680;20.074;2022-09-01T06:13:52;11.90;;;5.85;;
34204;SDS011;20471;49.680;20.074;2022-09-01T06:16:23;12.00;;;5.28;;
34204;SDS011;20471;49.680;20.074;2022-09-01T06:18:51;10.50;;;5.85;;
34204;SDS011;20471;49.680;20.074;2022-09-01T06:21:19;9.90;;;6.10;;
34204;SDS011;20471;49.680;20.074;2022-09-01T06:23:50;9.63;;;5.67;;
34204;SDS011;20471;49.680;20.074;2022-09-01T06:26:27;9.53;;;5.53;;
34204;SDS011;20471;49.680;20.074;2022-09-01T06:28:57;10.35;;;5.95;;
34204;SDS011;20471;49.680;20.074;2022-09-01T06:31:29;12.15;;;5.90;;
34204;SDS011;20471;49.680;20.074;2022-09-01T06:34:02;9.60;;;5.80;;
34204;SDS011;20471;49.680;20.074;2022-09-01T06:36:36;9.95;;;5.78;;
34204;SDS011;20471;49.680;20.074;2022-09-01T06:39:04;8.57;;;5.67;;
34204;SDS011;20471;49.680;20.074;2022-09-01T06:41:31;9.93;;;5.42;;
34204;SDS011;20471;49.680;20.074;2022-09-01T06:43:58;9.55;;;5.22;;
34204;SDS011;20471;49.680;20.074;2022-09-01T06:46:26;7.90;;;4.97;;
34204;SDS011;20471;49.680;20.074;2022-09-01T06:48:53;10.03;;;5.42;;
34204;SDS011;20471;49.680;20.074;2022-09-01T06:51:22;7.30;;;4.87;;
34204;SDS011;20471;49.680;20.074;2022-09-01T06:53:50;7.20;;;5.00;;
34204;SDS011;20471;49.680;20.074;2022-09-01T06:56:19;10.05;;;4.97;;
34204;SDS011;20471;49.680;20.074;2022-09-01T06:58:46;6.42;;;4.97;;
34204;SDS011;20471;49.680;20.074;2022-09-01T07:03:45;5.65;;;3.80;;
34204;SDS011;20471;49.680;20.074;2022-09-01T07:06:15;7.67;;;4.37;;
34204;SDS011;20471;49.680;20.074;2022-09-01T07:08:44;8.93;;;4.55;;
34204;SDS011;20471;49.680;20.074;2022-09-01T07:11:16;9.08;;;4.15;;
34204;SDS011;20471;49.680;20.074;2022-09-01T07:13:48;6.80;;;4.22;;
34204;SDS011;20471;49.680;20.074;2022-09-01T07:16:17;6.75;;;4.17;;
34204;SDS011;20471;49.680;20.074;2022-09-01T07:18:45;6.12;;;3.98;;
34204;SDS011;20471;49.680;20.074;2022-09-01T07:21:11;8.78;;;4.20;;
34204;SDS011;20471;49.680;20.074;2022-09-01T07:23:38;6.65;;;3.80;;
34204;SDS011;20471;49.680;20.074;2022-09-01T07:26:06;4.60;;;3.30;;
34204;SDS011;20471;49.680;20.074;2022-09-01T07:28:33;8.60;;;4.03;;
34204;SDS011;20471;49.680;20.074;2022-09-01T07:31:00;6.15;;;3.50;;
34204;SDS011;20471;49.680;20.074;2022-09-01T07:33:28;7.28;;;3.62;;
34204;SDS011;20471;49.680;20.074;2022-09-01T07:35:56;6.22;;;3.95;;
34204;SDS011;20471;49.680;20.074;2022-09-01T07:38:24;7.42;;;3.77;;
34204;SDS011;20471;49.680;20.074;2022-09-01T07:40:52;6.92;;;3.55;;
34204;SDS011;20471;49.680;20.074;2022-09-01T07:43:23;6.72;;;3.62;;
34204;SDS011;20471;49.680;20.074;2022-09-01T07:45:54;4.87;;;3.42;;
34204;SDS011;20471;49.680;20.074;2022-09-01T07:48:24;4.35;;;2.95;;
34204;SDS011;20471;49.680;20.074;2022-09-01T07:50:53;8.58;;;3.50;;
34204;SDS011;20471;49.680;20.074;2022-09-01T07:53:23;7.17;;;2.72;;
34204;SDS011;20471;49.680;20.074;2022-09-01T07:58:22;4.10;;;2.75;;
34204;SDS011;20471;49.680;20.074;2022-09-01T08:00:51;5.10;;;2.77;;
34204;SDS011;20471;49.680;20.074;2022-09-01T08:03:19;7.58;;;3.35;;
34204;SDS011;20471;49.680;20.074;2022-09-01T08:05:49;3.90;;;2.98;;
34204;SDS011;20471;49.680;20.074;2022-09-01T08:08:19;5.62;;;3.17;;
34204;SDS011;20471;49.680;20.074;2022-09-01T08:10:46;5.47;;;2.87;;
34204;SDS011;20471;49.680;20.074;2022-09-01T08:13:13;5.05;;;2.87;;
34204;SDS011;20471;49.680;20.074;2022-09-01T08:15:40;4.70;;;2.33;;
34204;SDS011;20471;49.680;20.074;2022-09-01T08:18:07;7.87;;;3.40;;
34204;SDS011;20471;49.680;20.074;2022-09-01T08:20:34;3.25;;;1.67;;
34204;SDS011;20471;49.680;20.074;2022-09-01T08:23:06;2.17;;;1.52;;
34204;SDS011;20471;49.680;20.074;2022-09-01T08:25:34;3.42;;;1.62;;
34204;SDS011;20471;49.680;20.074;2022-09-01T08:28:01;3.62;;;1.57;;
34204;SDS011;20471;49.680;20.074;2022-09-01T08:30:29;2.15;;;1.30;;
34204;SDS011;20471;49.680;20.074;2022-09-01T08:32:57;2.65;;;1.35;;
34204;SDS011;20471;49.680;20.074;2022-09-01T08:35:26;3.90;;;1.30;;
34204;SDS011;20471;49.680;20.074;2022-09-01T08:37:54;1.87;;;1.05;;
34204;SDS011;20471;49.680;20.074;2022-09-01T08:40:22;3.37;;;1.20;;
34204;SDS011;20471;49.680;20.074;2022-09-01T08:45:43;2.67;;;1.00;;
34204;SDS011;20471;49.680;20.074;2022-09-01T08:48:21;1.25;;;1.15;;
34204;SDS011;20471;49.680;20.074;2022-09-01T08:59:30;5.28;;;1.22;;
34204;SDS011;20471;49.680;20.074;2022-09-01T09:02:04;2.92;;;1.10;;
34204;SDS011;20471;49.680;20.074;2022-09-01T09:07:26;5.00;;;1.50;;
34204;SDS011;20471;49.680;20.074;2022-09-01T09:10:22;3.62;;;1.65;;
34204;SDS011;20471;49.680;20.074;2022-09-01T09:15:32;1.60;;;1.50;;
34204;SDS011;20471;49.680;20.074;2022-09-01T09:18:12;1.98;;;1.27;;
34204;SDS011;20471;49.680;20.074;2022-09-01T09:21:05;2.30;;;1.42;;
34204;SDS011;20471;49.680;20.074;2022-09-01T09:23:46;4.90;;;1.40;;
34204;SDS011;20471;49.680;20.074;2022-09-01T09:26:16;3.15;;;1.50;;
34204;SDS011;20471;49.680;20.074;2022-09-01T09:28:46;1.37;;;1.20;;
34204;SDS011;20471;49.680;20.074;2022-09-01T09:34:15;2.90;;;1.45;;
34204;SDS011;20471;49.680;20.074;2022-09-01T09:37:01;1.98;;;1.30;;
34204;SDS011;20471;49.680;20.074;2022-09-01T09:40:05;4.25;;;1.60;;
34204;SDS011;20471;49.680;20.074;2022-09-01T09:42:41;4.15;;;1.60;;
34204;SDS011;20471;49.680;20.074;2022-09-01T09:47:52;1.80;;;1.40;;
34204;SDS011;20471;49.680;20.074;2022-09-01T09:50:22;2.27;;;1.40;;
34204;SDS011;20471;49.680;20.074;2022-09-01T09:53:11;2.67;;;1.20;;
34204;SDS011;20471;49.680;20.074;2022-09-01T09:58:34;2.50;;;1.25;;
34204;SDS011;20471;49.680;20.074;2022-09-01T10:01:12;4.92;;;1.45;;
34204;SDS011;20471;49.680;20.074;2022-09-01T10:03:49;1.20;;;1.07;;
34204;SDS011;20471;49.680;20.074;2022-09-01T10:09:18;2.08;;;1.30;;
34204;SDS011;20471;49.680;20.074;2022-09-01T10:11:55;1.20;;;0.98;;
34204;SDS011;20471;49.680;20.074;2022-09-01T10:14:25;1.92;;;1.32;;
34204;SDS011;20471;49.680;20.074;2022-09-01T10:19:30;1.90;;;1.30;;
34204;SDS011;20471;49.680;20.074;2022-09-01T10:22:00;1.30;;;0.80;;
34204;SDS011;20471;49.680;20.074;2022-09-01T10:24:29;0.88;;;0.75;;
34204;SDS011;20471;49.680;20.074;2022-09-01T10:27:02;0.93;;;0.65;;
34204;SDS011;20471;49.680;20.074;2022-09-01T10:32:17;1.55;;;0.90;;
34204;SDS011;20471;49.680;20.074;2022-09-01T10:34:54;2.75;;;0.93;;
34204;SDS011;20471;49.680;20.074;2022-09-01T10:37:21;2.22;;;0.68;;
34204;SDS011;20471;49.680;20.074;2022-09-01T10:42:44;2.05;;;0.78;;
34204;SDS011;20471;49.680;20.074;2022-09-01T10:45:19;2.75;;;0.80;;
34204;SDS011;20471;49.680;20.074;2022-09-01T10:53:44;2.92;;;0.70;;
34204;SDS011;20471;49.680;20.074;2022-09-01T11:02:02;1.50;;;0.98;;
34204;SDS011;20471;49.680;20.074;2022-09-01T11:15:49;2.80;;;0.90;;
34204;SDS011;20471;49.680;20.074;2022-09-01T11:18:25;1.32;;;0.90;;
34204;SDS011;20471;49.680;20.074;2022-09-01T11:24:13;0.78;;;0.78;;
34204;SDS011;20471;49.680;20.074;2022-09-01T11:26:58;1.07;;;0.93;;
34204;SDS011;20471;49.680;20.074;2022-09-01T11:32:20;1.30;;;1.00;;
34204;SDS011;20471;49.680;20.074;2022-09-01T11:34:50;1.47;;;1.02;;
34204;SDS011;20471;49.680;20.074;2022-09-01T11:37:20;0.90;;;0.80;;
34204;SDS011;20471;49.680;20.074;2022-09-01T11:42:23;2.20;;;1.23;;
34204;SDS011;20471;49.680;20.074;2022-09-01T11:47:35;2.75;;;0.98;;
34204;SDS011;20471;49.680;20.074;2022-09-01T11:52:59;3.20;;;1.02;;
34204;SDS011;20471;49.680;20.074;2022-09-01T11:55:32;0.80;;;0.72;;
34204;SDS011;20471;49.680;20.074;2022-09-01T11:58:02;1.05;;;0.82;;
34204;SDS011;20471;49.680;20.074;2022-09-01T12:00:32;1.70;;;0.90;;
34204;SDS011;20471;49.680;20.074;2022-09-01T12:03:20;2.98;;;1.07;;
34204;SDS011;20471;49.680;20.074;2022-09-01T12:05:53;1.20;;;1.05;;
34204;SDS011;20471;49.680;20.074;2022-09-01T12:08:24;2.52;;;1.00;;
34204;SDS011;20471;49.680;20.074;2022-09-01T12:11:17;2.50;;;1.15;;
34204;SDS011;20471;49.680;20.074;2022-09-01T12:14:05;1.90;;;0.90;;
34204;SDS011;20471;49.680;20.074;2022-09-01T12:16:35;2.10;;;0.95;;
34204;SDS011;20471;49.680;20.074;2022-09-01T12:19:06;3.25;;;0.98;;
34204;SDS011;20471;49.680;20.074;2022-09-01T12:24:14;2.37;;;0.82;;
34204;SDS011;20471;49.680;20.074;2022-09-01T12:26:45;1.45;;;0.90;;
34204;SDS011;20471;49.680;20.074;2022-09-01T12:29:14;6.75;;;1.10;;
34204;SDS011;20471;49.680;20.074;2022-09-01T12:31:43;0.75;;;0.72;;
34204;SDS011;20471;49.680;20.074;2022-09-01T12:37:19;0.90;;;0.90;;
34204;SDS011;20471;49.680;20.074;2022-09-01T12:39:50;2.37;;;0.93;;
34204;SDS011;20471;49.680;20.074;2022-09-01T12:44:57;1.27;;;0.90;;
34204;SDS011;20471;49.680;20.074;2022-09-01T12:50:30;2.60;;;1.00;;
34204;SDS011;20471;49.680;20.074;2022-09-01T12:52:45;0.95;;;0.70;;
34204;SDS011;20471;49.680;20.074;2022-09-01T12:58:00;2.62;;;0.80;;
34204;SDS011;20471;49.680;20.074;2022-09-01T13:00:36;3.50;;;1.10;;
34204;SDS011;20471;49.680;20.074;2022-09-01T13:03:24;1.35;;;0.80;;
34204;SDS011;20471;49.680;20.074;2022-09-01T13:05:53;1.98;;;0.78;;
34204;SDS011;20471;49.680;20.074;2022-09-01T13:08:24;0.75;;;0.65;;
34204;SDS011;20471;49.680;20.074;2022-09-01T13:10:56;2.65;;;0.80;;
34204;SDS011;20471;49.680;20.074;2022-09-01T13:13:34;2.95;;;0.90;;
34204;SDS011;20471;49.680;20.074;2022-09-01T13:16:01;1.62;;;0.88;;
34204;SDS011;20471;49.680;20.074;2022-09-01T13:18:31;1.75;;;0.75;;
34204;SDS011;20471;49.680;20.074;2022-09-01T13:20:58;1.20;;;0.72;;
34204;SDS011;20471;49.680;20.074;2022-09-01T13:23:25;1.35;;;0.90;;
34204;SDS011;20471;49.680;20.074;2022-09-01T13:25:52;3.83;;;0.90;;
34204;SDS011;20471;49.680;20.074;2022-09-01T13:28:19;1.90;;;0.90;;
34204;SDS011;20471;49.680;20.074;2022-09-01T13:30:49;2.30;;;0.85;;
34204;SDS011;20471;49.680;20.074;2022-09-01T13:33:19;3.08;;;1.00;;
34204;SDS011;20471;49.680;20.074;2022-09-01T13:35:46;1.12;;;0.72;;
34204;SDS011;20471;49.680;20.074;2022-09-01T13:38:14;1.60;;;0.93;;
34204;SDS011;20471;49.680;20.074;2022-09-01T13:40:43;2.77;;;0.90;;
34204;SDS011;20471;49.680;20.074;2022-09-01T13:43:12;5.65;;;1.47;;
34204;SDS011;20471;49.680;20.074;2022-09-01T13:45:40;2.45;;;1.10;;
34204;SDS011;20471;49.680;20.074;2022-09-01T13:48:07;2.08;;;0.95;;
34204;SDS011;20471;49.680;20.074;2022-09-01T13:50:35;4.05;;;0.88;;
34204;SDS011;20471;49.680;20.074;2022-09-01T13:53:03;1.20;;;0.95;;
34204;SDS011;20471;49.680;20.074;2022-09-01T13:55:32;2.27;;;0.90;;
34204;SDS011;20471;49.680;20.074;2022-09-01T13:58:02;3.52;;;0.93;;
34204;SDS011;20471;49.680;20.074;2022-09-01T14:00:31;3.45;;;1.12;;
34204;SDS011;20471;49.680;20.074;2022-09-01T14:03:02;1.50;;;1.05;;
34204;SDS011;20471;49.680;20.074;2022-09-01T14:05:36;5.65;;;1.40;;
34204;SDS011;20471;49.680;20.074;2022-09-01T14:08:07;3.87;;;1.00;;
34204;SDS011;20471;49.680;20.074;2022-09-01T14:13:08;1.97;;;0.70;;
34204;SDS011;20471;49.680;20.074;2022-09-01T14:15:36;1.80;;;0.95;;
34204;SDS011;20471;49.680;20.074;2022-09-01T14:18:04;4.47;;;1.00;;
34204;SDS011;20471;49.680;20.074;2022-09-01T14:20:32;4.60;;;0.72;;
34204;SDS011;20471;49.680;20.074;2022-09-01T14:23:04;1.40;;;1.00;;
34204;SDS011;20471;49.680;20.074;2022-09-01T14:25:33;2.65;;;0.93;;
34204;SDS011;20471;49.680;20.074;2022-09-01T14:28:00;1.55;;;0.90;;
34204;SDS011;20471;49.680;20.074;2022-09-01T14:30:28;1.82;;;1.15;;
34204;SDS011;20471;49.680;20.074;2022-09-01T14:32:57;1.60;;;0.85;;
34204;SDS011;20471;49.680;20.074;2022-09-01T14:35:25;3.40;;;1.20;;
34204;SDS011;20471;49.680;20.074;2022-09-01T14:37:53;3.30;;;1.20;;
34204;SDS011;20471;49.680;20.074;2022-09-01T14:40:21;2.52;;;1.35;;
34204;SDS011;20471;49.680;20.074;2022-09-01T14:42:49;2.98;;;1.42;;
34204;SDS011;20471;49.680;20.074;2022-09-01T14:45:18;3.80;;;1.80;;
34204;SDS011;20471;49.680;20.074;2022-09-01T14:47:49;5.33;;;2.02;;
34204;SDS011;20471;49.680;20.074;2022-09-01T14:50:19;2.20;;;1.40;;
34204;SDS011;20471;49.680;20.074;2022-09-01T14:52:47;4.92;;;1.47;;
34204;SDS011;20471;49.680;20.074;2022-09-01T14:55:17;4.00;;;1.15;;
34204;SDS011;20471;49.680;20.074;2022-09-01T14:57:44;4.10;;;1.80;;
34204;SDS011;20471;49.680;20.074;2022-09-01T15:00:10;5.50;;;1.87;;
34204;SDS011;20471;49.680;20.074;2022-09-01T15:02:38;3.77;;;1.22;;
34204;SDS011;20471;49.680;20.074;2022-09-01T15:05:07;2.12;;;1.17;;
34204;SDS011;20471;49.680;20.074;2022-09-01T15:07:35;3.47;;;1.57;;
34204;SDS011;20471;49.680;20.074;2022-09-01T15:10:02;0.95;;;0.85;;
34204;SDS011;20471;49.680;20.074;2022-09-01T15:12:31;4.87;;;1.20;;
34204;SDS011;20471;49.680;20.074;2022-09-01T15:14:58;4.35;;;1.30;;
34204;SDS011;20471;49.680;20.074;2022-09-01T15:17:26;7.55;;;0.95;;
34204;SDS011;20471;49.680;20.074;2022-09-01T15:19:53;0.82;;;0.78;;
34204;SDS011;20471;49.680;20.074;2022-09-01T15:22:20;3.98;;;0.72;;
34204;SDS011;20471;49.680;20.074;2022-09-01T15:24:47;2.05;;;0.90;;
34204;SDS011;20471;49.680;20.074;2022-09-01T15:27:13;1.17;;;0.85;;
34204;SDS011;20471;49.680;20.074;2022-09-01T15:29:40;2.30;;;0.88;;
34204;SDS011;20471;49.680;20.074;2022-09-01T15:32:12;3.00;;;0.82;;
34204;SDS011;20471;49.680;20.074;2022-09-01T15:34:40;2.22;;;0.62;;
34204;SDS011;20471;49.680;20.074;2022-09-01T15:37:07;2.35;;;0.70;;
34204;SDS011;20471;49.680;20.074;2022-09-01T15:39:34;4.10;;;1.07;;
34204;SDS011;20471;49.680;20.074;2022-09-01T15:42:02;0.93;;;0.68;;
34204;SDS011;20471;49.680;20.074;2022-09-01T15:44:29;1.72;;;0.88;;
34204;SDS011;20471;49.680;20.074;2022-09-01T15:46:56;3.22;;;1.02;;
34204;SDS011;20471;49.680;20.074;2022-09-01T15:49:23;1.42;;;0.60;;
34204;SDS011;20471;49.680;20.074;2022-09-01T15:51:50;2.10;;;0.80;;
34204;SDS011;20471;49.680;20.074;2022-09-01T15:54:20;1.92;;;0.95;;
34204;SDS011;20471;49.680;20.074;2022-09-01T15:56:46;6.28;;;0.82;;
34204;SDS011;20471;49.680;20.074;2022-09-01T15:59:13;2.47;;;0.80;;
34204;SDS011;20471;49.680;20.074;2022-09-01T16:01:41;2.80;;;1.15;;
34204;SDS011;20471;49.680;20.074;2022-09-01T16:04:12;1.87;;;0.65;;
34204;SDS011;20471;49.680;20.074;2022-09-01T16:06:41;3.12;;;1.67;;
34204;SDS011;20471;49.680;20.074;2022-09-01T16:09:08;1.92;;;1.35;;
34204;SDS011;20471;49.680;20.074;2022-09-01T16:14:06;4.28;;;2.50;;
34204;SDS011;20471;49.680;20.074;2022-09-01T16:16:55;5.62;;;3.00;;
34204;SDS011;20471;49.680;20.074;2022-09-01T16:22:26;3.60;;;2.27;;
34204;SDS011;20471;49.680;20.074;2022-09-01T16:25:22;4.53;;;2.85;;
34204;SDS011;20471;49.680;20.074;2022-09-01T16:27:56;6.58;;;3.02;;
34204;SDS011;20471;49.680;20.074;2022-09-01T16:30:27;6.75;;;3.00;;
34204;SDS011;20471;49.680;20.074;2022-09-01T16:32:58;10.40;;;2.62;;
34204;SDS011;20471;49.680;20.074;2022-09-01T16:35:37;5.22;;;2.40;;
34204;SDS011;20471;49.680;20.074;2022-09-01T16:41:17;4.28;;;2.10;;
34204;SDS011;20471;49.680;20.074;2022-09-01T16:47:29;3.55;;;2.12;;
34204;SDS011;20471;49.680;20.074;2022-09-01T17:05:15;6.78;;;2.45;;
34204;SDS011;20471;49.680;20.074;2022-09-01T17:07:49;5.85;;;2.70;;
34204;SDS011;20471;49.680;20.074;2022-09-01T17:10:42;4.10;;;2.30;;
34204;SDS011;20471;49.680;20.074;2022-09-01T17:19:04;5.15;;;2.22;;
34204;SDS011;20471;49.680;20.074;2022-09-01T17:21:41;4.37;;;2.20;;